Time;durP1;ratioP1;P1;durP2;ratioP2;P2;SDS_P1;SDS_P2;PMS_P1;PMS_P2;Temp;Humidity;BMP_temperature;BMP_pressure;BME280_temperature;BME280_humidity;BME280_pressure;Samples;Min_cycle;Max_cycle;Signal;HPM_P1;HPM_P2
2023/08/13 00:02:21;;;;;;;17.42;3.78;;;;;;;16.11;100.00;101552.09;5063003;28;20036;-76
2023/08/13 00:04:46;;;;;;;18.88;4.03;;;;;;;16.03;100.00;101557.47;5065959;28;20017;-73
2023/08/13 00:07:12;;;;;;;19.92;3.80;;;;;;;16.05;100.00;101558.34;5062716;28;20062;-72
2023/08/13 00:09:40;;;;;;;18.55;3.97;;;;;;;15.98;100.00;101556.63;5065084;28;20036;-73
2023/08/13 00:12:05;;;;;;;19.23;4.00;;;;;;;16.04;100.00;101548.56;5063545;28;20036;-75
2023/08/13 00:14:31;;;;;;;20.30;4.45;;;;;;;16.00;100.00;101549.47;5063846;28;20037;-75
2023/08/13 00:16:56;;;;;;;17.73;3.80;;;;;;;15.94;100.00;101554.88;5064769;28;20021;-74
2023/08/13 00:19:21;;;;;;;18.33;4.18;;;;;;;15.90;100.00;101550.44;5062553;28;20391;-75
2023/08/13 00:21:47;;;;;;;19.10;4.07;;;;;;;15.89;100.00;101549.56;5065512;28;20064;-76
2023/08/13 00:24:12;;;;;;;18.38;3.80;;;;;;;15.86;100.00;101547.81;5062483;28;20079;-73
2023/08/13 00:26:38;;;;;;;19.00;4.10;;;;;;;15.80;100.00;101546.94;5064599;28;20395;-76
2023/08/13 00:29:04;;;;;;;17.13;3.70;;;;;;;15.77;100.00;101545.16;5063558;28;20475;-74
2023/08/13 00:31:30;;;;;;;17.33;3.95;;;;;;;15.75;100.00;101544.28;5063636;28;20106;-76
2023/08/13 00:33:55;;;;;;;20.27;4.30;;;;;;;15.70;100.00;101540.78;5063412;28;20475;-76
2023/08/13 00:36:21;;;;;;;20.50;4.30;;;;;;;15.71;100.00;101549.63;5062480;28;20025;-67
2023/08/13 00:38:46;;;;;;;19.20;4.20;;;;;;;15.65;100.00;101543.47;5065357;28;20136;-65
2023/08/13 00:41:11;;;;;;;17.83;4.20;;;;;;;15.61;100.00;101540.81;5062128;28;20028;-66
2023/08/13 00:43:37;;;;;;;17.05;4.03;;;;;;;15.57;100.00;101545.28;5064362;28;20031;-66
2023/08/13 00:46:04;;;;;;;19.88;4.43;;;;;;;15.57;100.00;101542.63;5063309;28;20020;-65
2023/08/13 00:48:30;;;;;;;18.90;4.20;;;;;;;15.59;100.00;101547.94;5063288;28;20064;-68
2023/08/13 00:50:56;;;;;;;19.08;4.32;;;;;;;15.61;100.00;101540.81;5064311;28;20480;-67
2023/08/13 00:53:22;;;;;;;19.27;4.28;;;;;;;15.59;100.00;101540.81;5061759;28;20167;-68
2023/08/13 00:55:47;;;;;;;20.00;3.95;;;;;;;15.51;100.00;101538.19;5064916;28;20025;-65
2023/08/13 00:58:13;;;;;;;18.13;3.97;;;;;;;15.51;100.00;101540.00;5061865;28;20415;-65
2023/08/13 01:00:38;;;;;;;18.38;4.03;;;;;;;15.47;100.00;101533.78;5063962;28;20507;-65
2023/08/13 01:03:04;;;;;;;20.90;4.35;;;;;;;15.44;100.00;101538.25;5062785;28;20485;-65
2023/08/13 01:05:57;;;;;;;18.65;4.20;;;;;;;15.39;100.00;101540.03;5062814;28;20074;-71
2023/08/13 01:08:43;;;;;;;19.23;4.10;;;;;;;15.34;100.00;101540.94;5058962;28;20475;-65
2023/08/13 01:11:40;;;;;;;19.65;4.07;;;;;;;15.32;100.00;101540.06;5062338;28;20078;-66
2023/08/13 01:14:16;;;;;;;18.27;4.30;;;;;;;15.26;100.00;101540.09;5062081;28;20517;-65
2023/08/13 01:16:43;;;;;;;18.95;4.05;;;;;;;15.23;100.00;101542.78;5061669;28;20032;-65
2023/08/13 01:19:12;;;;;;;19.92;4.10;;;;;;;15.23;100.00;101545.44;5063738;28;20033;-65
2023/08/13 01:21:38;;;;;;;19.35;4.22;;;;;;;15.26;100.00;101548.09;5062008;28;20032;-66
2023/08/13 01:24:04;;;;;;;17.88;4.20;;;;;;;15.21;100.00;101546.34;5063159;28;20082;-69
2023/08/13 01:26:37;;;;;;;18.13;4.07;;;;;;;15.23;100.00;101550.78;5063231;28;20487;-64
2023/08/13 01:29:17;;;;;;;19.08;4.00;;;;;;;15.23;100.00;101549.88;5062723;28;20459;-66
2023/08/13 01:31:47;;;;;;;19.38;4.00;;;;;;;15.18;100.00;101551.69;5061272;28;20021;-65
2023/08/13 01:34:15;;;;;;;19.50;4.10;;;;;;;15.11;100.00;101548.13;5063835;28;20080;-76
2023/08/13 01:36:42;;;;;;;18.30;3.75;;;;;;;15.13;100.00;101555.22;5061799;28;20061;-73
2023/08/13 01:39:07;;;;;;;18.90;3.88;;;;;;;15.13;100.00;101544.59;5063301;28;20040;-73
2023/08/13 01:41:52;;;;;;;17.77;3.72;;;;;;;15.12;100.00;101547.25;5062570;28;20029;-75
2023/08/13 01:44:17;;;;;;;20.45;3.88;;;;;;;15.02;100.00;101545.50;5057040;28;20100;-74
2023/08/13 01:46:43;;;;;;;17.30;3.95;;;;;;;14.98;100.00;101548.19;5064171;28;20115;-73
2023/08/13 01:49:08;;;;;;;20.33;4.15;;;;;;;14.98;100.00;101549.94;5061701;28;20036;-74
2023/08/13 01:51:33;;;;;;;21.73;4.43;;;;;;;15.01;100.00;101549.06;5063090;28;20033;-73
2023/08/13 01:53:59;;;;;;;20.17;4.03;;;;;;;14.96;100.00;101541.97;5062875;28;20485;-74
2023/08/13 01:56:24;;;;;;;17.50;3.92;;;;;;;14.92;100.00;101548.19;5061345;28;20048;-73
2023/08/13 01:58:49;;;;;;;18.73;3.88;;;;;;;14.91;100.00;101548.19;5064382;28;20110;-76
2023/08/13 02:01:15;;;;;;;21.98;4.63;;;;;;;14.88;100.00;101545.53;5060987;28;20469;-72
2023/08/13 02:03:40;;;;;;;18.33;3.95;;;;;;;14.85;100.00;101541.09;5063396;28;20036;-75
2023/08/13 02:06:05;;;;;;;20.90;4.15;;;;;;;14.82;100.00;101549.09;5062176;28;20029;-76
2023/08/13 02:08:31;;;;;;;19.40;3.90;;;;;;;14.86;100.00;101553.53;5062089;28;20025;-75
2023/08/13 02:10:58;;;;;;;20.33;4.25;;;;;;;14.85;100.00;101553.53;5063145;28;20035;-74
2023/08/13 02:13:24;;;;;;;19.17;4.20;;;;;;;14.77;100.00;101542.91;5059913;28;20052;-73
2023/08/13 02:15:49;;;;;;;16.73;3.83;;;;;;;14.74;100.00;101545.56;5063910;28;20472;-66
2023/08/13 02:18:15;;;;;;;17.30;3.90;;;;;;;14.72;100.00;101539.34;5060624;28;20159;-68
2023/08/13 02:20:40;;;;;;;18.95;3.90;;;;;;;14.71;100.00;101538.47;5063369;28;20077;-65
2023/08/13 02:23:05;;;;;;;16.52;3.80;;;;;;;14.72;100.00;101537.59;5062006;28;20098;-66
2023/08/13 02:25:31;;;;;;;16.80;3.92;;;;;;;14.69;100.00;101539.38;5061926;28;20468;-67
2023/08/13 02:27:56;;;;;;;18.45;3.75;;;;;;;14.64;100.00;101540.25;5063177;28;20024;-65
2023/08/13 02:30:21;;;;;;;18.38;3.85;;;;;;;14.62;100.00;101534.06;5060626;28;20017;-66
2023/08/13 02:32:47;;;;;;;19.27;3.78;;;;;;;14.61;100.00;101545.56;5064339;28;20410;-65
2023/08/13 02:35:13;;;;;;;19.30;4.00;;;;;;;14.61;100.00;101531.38;5060397;28;20049;-66
2023/08/13 02:37:38;;;;;;;19.13;3.95;;;;;;;14.64;100.00;101531.41;5062833;28;20040;-67
2023/08/13 02:40:06;;;;;;;17.40;3.75;;;;;;;14.63;100.00;101527.84;5062094;28;20494;-65
2023/08/13 02:42:32;;;;;;;20.33;3.80;;;;;;;14.57;100.00;101535.78;5060509;28;20029;-67
2023/08/13 02:44:57;;;;;;;18.63;4.00;;;;;;;14.56;100.00;101530.47;5062892;28;20032;-65
2023/08/13 02:47:22;;;;;;;19.10;3.90;;;;;;;14.55;100.00;101534.91;5060691;28;20029;-66
2023/08/13 02:49:48;;;;;;;18.63;3.70;;;;;;;14.55;100.00;101534.91;5063811;28;20119;-65
2023/08/13 02:52:13;;;;;;;18.02;3.78;;;;;;;14.55;100.00;101536.72;5060499;28;20464;-73
2023/08/13 02:54:38;;;;;;;18.75;3.88;;;;;;;14.46;100.00;101530.50;5062833;28;20486;-66
2023/08/13 02:57:04;;;;;;;18.42;4.28;;;;;;;14.45;100.00;101527.84;5063537;28;20511;-65
2023/08/13 02:59:29;;;;;;;20.13;3.88;;;;;;;14.40;100.00;101534.91;5064958;28;20427;-66
2023/08/13 03:01:54;;;;;;;17.08;3.85;;;;;;;14.38;100.00;101531.38;5066832;28;20032;-66
2023/08/13 03:04:20;;;;;;;17.48;3.78;;;;;;;14.30;100.00;101534.94;5063709;28;20108;-72
2023/08/13 03:06:45;;;;;;;17.38;3.92;;;;;;;14.27;100.00;101528.72;5066910;28;20499;-73
2023/08/13 03:09:19;;;;;;;19.63;4.07;;;;;;;14.30;100.00;101534.06;5064491;28;20373;-75
2023/08/13 03:11:44;;;;;;;18.33;4.00;;;;;;;14.27;100.00;101529.63;5065379;28;20468;-74
2023/08/13 03:14:09;;;;;;;18.75;4.20;;;;;;;14.23;100.00;101534.94;5064295;28;20032;-75
2023/08/13 03:16:35;;;;;;;18.42;4.10;;;;;;;14.26;100.00;101533.16;5065830;28;20108;-73
2023/08/13 03:19:00;;;;;;;16.27;3.90;;;;;;;14.26;100.00;101527.84;5065517;28;20048;-73
2023/08/13 03:21:25;;;;;;;20.13;4.00;;;;;;;14.25;100.00;101531.38;5064066;28;20078;-73
2023/08/13 03:23:51;;;;;;;19.95;4.20;;;;;;;14.28;100.00;101535.81;5066889;28;20032;-74
2023/08/13 03:26:16;;;;;;;18.60;4.20;;;;;;;14.23;100.00;101534.94;5063218;28;20479;-73
2023/08/13 03:28:41;;;;;;;18.40;4.10;;;;;;;14.22;100.00;101539.34;5066304;28;20033;-73
2023/08/13 03:31:07;;;;;;;18.05;4.18;;;;;;;14.20;100.00;101532.25;5064312;28;20613;-74
2023/08/13 03:33:32;;;;;;;17.67;4.13;;;;;;;14.20;100.00;101527.84;5064701;28;20130;-73
2023/08/13 03:35:58;;;;;;;18.63;4.40;;;;;;;14.17;100.00;101538.47;5065439;28;20060;-74
2023/08/13 03:38:23;;;;;;;18.65;4.28;;;;;;;14.13;100.00;101531.38;5063394;28;20511;-75
2023/08/13 03:40:52;;;;;;;17.70;3.90;;;;;;;14.12;100.00;101537.59;5066512;28;20387;-73
2023/08/13 03:43:18;;;;;;;17.33;4.07;;;;;;;14.10;100.00;101526.06;5059151;28;20055;-72
2023/08/13 03:45:43;;;;;;;18.70;4.50;;;;;;;14.07;100.00;101526.06;5065959;28;20028;-74
2023/08/13 03:48:08;;;;;;;18.48;4.10;;;;;;;14.09;100.00;101524.28;5063883;28;20146;-66
2023/08/13 03:50:34;;;;;;;19.45;4.30;;;;;;;14.05;100.00;101527.81;5064782;28;20040;-65
2023/08/13 03:52:59;;;;;;;19.85;4.20;;;;;;;14.05;100.00;101534.06;5063819;28;20039;-65
2023/08/13 03:55:24;;;;;;;17.90;4.40;;;;;;;14.07;100.00;101528.72;5062930;28;20044;-66
2023/08/13 03:57:53;;;;;;;20.23;4.28;;;;;;;14.06;100.00;101540.25;5066338;28;20024;-65
2023/08/13 04:00:18;;;;;;;19.95;4.05;;;;;;;14.00;100.00;101541.13;5058774;28;20086;-66
2023/08/13 04:02:48;;;;;;;18.77;4.40;;;;;;;14.01;100.00;101542.00;5065557;28;20116;-68
2023/08/13 04:05:14;;;;;;;19.50;4.00;;;;;;;14.02;100.00;101535.81;5063026;28;20033;-68
2023/08/13 04:07:39;;;;;;;18.75;4.30;;;;;;;14.00;100.00;101545.56;5063974;28;20048;-67
2023/08/13 04:10:05;;;;;;;20.25;4.05;;;;;;;14.04;100.00;101544.69;5063752;28;20028;-65
2023/08/13 04:12:30;;;;;;;19.42;4.22;;;;;;;14.00;100.00;101545.56;5063767;28;20027;-67
2023/08/13 04:14:56;;;;;;;17.65;4.13;;;;;;;14.04;100.00;101552.66;5065103;28;20391;-67
2023/08/13 04:17:21;;;;;;;17.33;4.22;;;;;;;14.05;100.00;101543.78;5062325;28;20112;-66
2023/08/13 04:19:46;;;;;;;19.48;4.18;;;;;;;14.05;100.00;101546.44;5058555;28;20520;-65
2023/08/13 04:22:12;;;;;;;20.20;4.25;;;;;;;14.04;100.00;101544.69;5063838;28;20033;-66
2023/08/13 04:24:37;;;;;;;18.15;4.30;;;;;;;14.04;100.00;101552.66;5063873;28;20043;-66
2023/08/13 04:27:04;;;;;;;18.23;4.20;;;;;;;14.02;100.00;101543.78;5063443;28;20500;-66
2023/08/13 04:29:29;;;;;;;18.15;4.40;;;;;;;14.03;100.00;101546.44;5064388;28;20137;-66
2023/08/13 04:31:55;;;;;;;18.52;4.10;;;;;;;14.02;100.00;101546.44;5062510;28;20053;-65
2023/08/13 04:34:20;;;;;;;19.90;4.45;;;;;;;14.05;100.00;101547.34;5065114;28;20064;-66
2023/08/13 04:36:45;;;;;;;19.25;4.45;;;;;;;14.08;100.00;101541.13;5062100;28;20029;-70
2023/08/13 04:39:11;;;;;;;17.77;4.28;;;;;;;14.08;100.00;101549.09;5064671;28;20186;-67
2023/08/13 04:41:37;;;;;;;18.63;4.25;;;;;;;14.08;100.00;101534.03;5063249;28;20102;-66
2023/08/13 04:44:03;;;;;;;19.10;4.40;;;;;;;14.12;100.00;101543.81;5063223;28;20036;-66
2023/08/13 04:46:28;;;;;;;18.60;4.40;;;;;;;14.15;100.00;101548.22;5064384;28;20408;-66
2023/08/13 04:48:54;;;;;;;17.88;4.22;;;;;;;14.21;100.00;101547.34;5060673;28;20113;-68
2023/08/13 04:51:19;;;;;;;19.13;4.43;;;;;;;14.19;100.00;101557.97;5065054;28;20115;-66
2023/08/13 04:53:45;;;;;;;18.67;4.28;;;;;;;14.23;100.00;101559.75;5061961;28;20044;-65
2023/08/13 04:56:11;;;;;;;19.05;4.40;;;;;;;14.25;100.00;101557.97;5064090;28;20112;-66
2023/08/13 04:58:36;;;;;;;18.35;4.38;;;;;;;14.24;100.00;101553.56;5062919;28;20123;-67
2023/08/13 05:01:03;;;;;;;18.05;4.43;;;;;;;14.28;100.00;101552.69;5063220;28;20456;-66
2023/08/13 05:03:29;;;;;;;19.15;4.30;;;;;;;14.34;100.00;101553.53;5063885;28;20039;-66
2023/08/13 05:05:54;;;;;;;20.08;4.80;;;;;;;14.37;100.00;101545.56;5061620;28;20024;-65
2023/08/13 05:08:20;;;;;;;19.30;4.75;;;;;;;14.40;100.00;101550.88;5065346;28;20040;-66
2023/08/13 05:10:45;;;;;;;18.63;4.55;;;;;;;14.44;100.00;101544.69;5061525;28;20021;-66
2023/08/13 05:13:11;;;;;;;19.58;4.65;;;;;;;14.51;100.00;101540.25;5064046;28;20033;-66
2023/08/13 05:15:36;;;;;;;18.73;4.50;;;;;;;14.53;100.00;101535.81;5062591;28;20032;-66
2023/08/13 05:18:01;;;;;;;20.90;4.95;;;;;;;14.54;100.00;101533.13;5061223;28;20028;-67
2023/08/13 05:20:27;;;;;;;18.42;4.55;;;;;;;14.61;100.00;101542.91;5063822;28;20043;-66
2023/08/13 05:22:52;;;;;;;21.23;5.05;;;;;;;14.59;100.00;101544.69;5061067;28;20029;-67
2023/08/13 05:25:18;;;;;;;20.17;4.63;;;;;;;14.59;100.00;101550.00;5064633;28;20064;-66
2023/08/13 05:27:43;;;;;;;18.38;5.05;;;;;;;14.63;100.00;101549.16;5061710;28;20040;-66
2023/08/13 05:30:09;;;;;;;18.65;4.70;;;;;;;14.62;100.00;101552.69;5063171;28;20048;-65
2023/08/13 05:32:34;;;;;;;21.13;4.70;;;;;;;14.63;100.00;101554.47;5063024;28;20039;-66
2023/08/13 05:35:00;;;;;;;20.33;4.88;;;;;;;14.66;100.00;101552.69;5061885;28;20053;-66
2023/08/13 05:37:25;;;;;;;22.17;5.10;;;;;;;14.67;100.00;101555.34;5064091;28;20037;-67
2023/08/13 05:39:51;;;;;;;20.63;4.60;;;;;;;14.68;100.00;101557.13;5060918;28;20526;-66
2023/08/13 05:42:16;;;;;;;20.58;5.00;;;;;;;14.72;100.00;101557.97;5064349;28;20028;-66
2023/08/13 05:44:42;;;;;;;20.70;5.22;;;;;;;14.74;100.00;101561.53;5061626;28;20040;-65
2023/08/13 05:47:07;;;;;;;19.17;4.88;;;;;;;14.78;100.00;101555.31;5063135;28;20369;-66
2023/08/13 05:49:33;;;;;;;20.27;4.60;;;;;;;14.87;100.00;101560.63;5062881;28;20071;-65
2023/08/13 05:51:58;;;;;;;21.55;4.85;;;;;;;14.95;100.00;101568.59;5061567;28;20032;-65
2023/08/13 05:54:23;;;;;;;20.35;4.75;;;;;;;15.05;100.00;101567.66;5064477;28;20472;-65
2023/08/13 05:56:49;;;;;;;18.73;4.43;;;;;;;15.12;100.00;101568.56;5060757;28;20426;-67
2023/08/13 05:59:14;;;;;;;19.50;5.00;;;;;;;15.19;100.00;101567.66;5063690;28;20021;-67
2023/08/13 06:01:40;;;;;;;19.45;4.70;;;;;;;15.26;100.00;101568.50;5061914;28;20021;-66
2023/08/13 06:04:05;;;;;;;19.05;4.50;;;;;;;15.32;100.00;101560.50;5062409;28;20383;-66
2023/08/13 06:06:30;;;;;;;20.58;4.60;;;;;;;15.39;100.00;101572.00;5062946;28;20489;-66
2023/08/13 06:08:56;;;;;;;19.83;4.95;;;;;;;15.47;100.00;101565.75;5061308;28;20021;-66
2023/08/13 06:11:21;;;;;;;18.10;4.22;;;;;;;15.55;100.00;101562.16;5064108;28;20020;-70
2023/08/13 06:13:47;;;;;;;18.25;4.43;;;;;;;15.64;100.00;101563.00;5060518;28;20017;-66
2023/08/13 06:16:12;;;;;;;18.30;4.10;;;;;;;15.77;100.00;101568.25;5063492;28;20032;-66
2023/08/13 06:18:37;;;;;;;16.80;4.13;;;;;;;15.89;100.00;101568.22;5061911;28;20536;-66
2023/08/13 06:21:03;;;;;;;18.90;4.15;;;;;;;15.98;100.00;101568.16;5062012;28;20379;-66
2023/08/13 06:23:29;;;;;;;17.98;4.28;;;;;;;16.07;100.00;101577.00;5063371;28;20040;-65
2023/08/13 06:25:55;;;;;;;19.30;4.43;;;;;;;16.18;100.00;101564.50;5060669;28;20021;-69
2023/08/13 06:28:20;;;;;;;18.85;4.10;;;;;;;16.31;100.00;101566.16;5064126;28;20503;-66
2023/08/13 06:30:45;;;;;;;19.60;4.30;;;;;;;16.43;100.00;101567.84;5060721;28;20025;-66
2023/08/13 06:33:11;;;;;;;19.55;4.00;;;;;;;16.42;100.00;101563.38;5066244;28;20029;-71
2023/08/13 06:35:37;;;;;;;19.55;4.20;;;;;;;16.39;100.00;101568.75;5064510;28;20457;-66
2023/08/13 06:38:02;;;;;;;19.27;4.35;;;;;;;16.45;100.00;101570.47;5065405;28;20035;-66
2023/08/13 06:40:28;;;;;;;16.70;4.10;;;;;;;16.64;100.00;101572.06;5066956;28;20082;-74
2023/08/13 06:42:53;;;;;;;16.50;3.78;;;;;;;16.84;100.00;101571.88;5064272;28;20036;-73
2023/08/13 06:45:21;;;;;;;18.38;4.00;;;;;;;17.05;100.00;101564.56;5067441;28;20056;-74
2023/08/13 06:47:47;;;;;;;19.55;4.30;;;;;;;17.03;100.00;101572.59;5064116;28;20033;-73
2023/08/13 06:50:12;;;;;;;17.77;3.90;;;;;;;16.99;100.00;101573.53;5066719;28;20048;-76
2023/08/13 06:52:38;;;;;;;18.40;3.90;;;;;;;17.02;100.00;101570.88;5065305;28;20040;-73
2023/08/13 06:55:04;;;;;;;17.98;4.25;;;;;;;17.10;100.00;101569.91;5063894;28;20029;-73
2023/08/13 06:57:29;;;;;;;17.70;3.78;;;;;;;17.30;100.00;101565.19;5065269;28;20033;-73
2023/08/13 06:59:54;;;;;;;19.85;4.32;;;;;;;17.44;100.00;101567.69;5063889;28;20406;-73
2023/08/13 07:02:20;;;;;;;17.13;3.83;;;;;;;17.55;100.00;101557.75;5067230;28;20540;-74
2023/08/13 07:04:45;;;;;;;17.45;3.78;;;;;;;17.66;100.00;101559.38;5064286;28;20488;-74
2023/08/13 07:07:11;;;;;;;18.08;3.75;;;;;;;17.80;100.00;101560.06;5066029;28;20490;-74
2023/08/13 07:09:37;;;;;;;17.50;3.50;;;;;;;17.96;100.00;101557.22;5065348;28;20032;-75
2023/08/13 07:12:03;;;;;;;17.42;3.58;;;;;;;17.97;100.00;101562.53;5063590;28;20488;-73
2023/08/13 07:14:29;;;;;;;19.48;3.70;;;;;;;18.03;100.00;101556.22;5066123;28;20052;-75
2023/08/13 07:16:54;;;;;;;18.02;3.85;;;;;;;18.07;100.00;101558.81;5063680;28;20027;-75
2023/08/13 07:19:19;;;;;;;16.23;3.65;;;;;;;18.19;100.00;101549.72;5066877;28;20124;-66
2023/08/13 07:21:46;;;;;;;19.17;3.85;;;;;;;18.32;100.00;101557.53;5064070;28;20061;-65
2023/08/13 07:24:11;;;;;;;16.75;3.63;;;;;;;18.39;100.00;101554.75;5066005;28;20032;-65
2023/08/13 07:26:36;;;;;;;18.42;4.20;;;;;;;18.41;100.00;101558.25;5065026;28;20028;-69
2023/08/13 07:29:06;;;;;;;20.08;3.55;;;;;;;18.45;100.00;101549.28;5064302;28;20386;-66
2023/08/13 07:31:32;;;;;;;18.02;3.60;;;;;;;18.54;100.00;101556.25;5066048;28;20379;-68
2023/08/13 07:33:58;;;;;;;17.73;3.67;;;;;;;18.63;100.00;101547.19;5063622;28;20453;-68
2023/08/13 07:36:23;;;;;;;19.35;3.78;;;;;;;19.00;100.00;101549.19;5066855;28;20025;-66
2023/08/13 07:38:48;;;;;;;18.50;3.80;;;;;;;19.16;100.00;101558.72;5062079;28;20044;-66
2023/08/13 07:41:14;;;;;;;18.70;3.40;;;;;;;19.21;100.00;101546.97;5066006;28;20119;-66
2023/08/13 07:43:39;;;;;;;15.60;3.20;;;;;;;19.24;100.00;101549.63;5063902;28;20035;-66
2023/08/13 07:46:04;;;;;;;18.63;3.70;;;;;;;19.36;100.00;101553.84;5064477;28;20112;-66
2023/08/13 07:48:30;;;;;;;15.82;3.38;;;;;;;19.44;100.00;101560.81;5065472;28;20048;-66
2023/08/13 07:50:55;;;;;;;19.73;3.50;;;;;;;19.51;100.00;101559.75;5062933;28;20063;-68
2023/08/13 07:53:21;;;;;;;18.38;3.50;;;;;;;19.63;100.00;101552.34;5066434;28;20410;-67
2023/08/13 07:55:49;;;;;;;17.67;3.28;;;;;;;19.62;100.00;101547.91;5063246;28;20033;-66
2023/08/13 07:58:14;;;;;;;19.83;3.58;;;;;;;19.65;100.00;101553.22;5065451;28;20043;-69
2023/08/13 08:00:40;;;;;;;16.25;3.10;;;;;;;19.74;100.00;101544.94;5064034;28;20032;-68
2023/08/13 08:03:05;;;;;;;15.60;3.15;;;;;;;19.89;100.00;101535.69;5064185;28;20048;-66
2023/08/13 08:05:31;;;;;;;18.38;3.28;;;;;;;20.07;100.00;101534.38;5065202;28;20035;-65
2023/08/13 08:07:56;;;;;;;17.17;3.15;;;;;;;20.19;100.00;101547.47;5062716;28;20021;-65
2023/08/13 08:10:21;;;;;;;15.93;3.15;;;;;;;20.19;100.00;101546.59;5066006;28;20356;-65
2023/08/13 08:12:47;;;;;;;17.52;3.13;;;;;;;20.15;100.00;101550.28;5063097;28;20043;-67
2023/08/13 08:15:12;;;;;;;18.85;3.70;;;;;;;20.14;100.00;101551.19;5063585;28;20033;-67
2023/08/13 08:17:38;;;;;;;18.27;3.25;;;;;;;20.17;100.00;101549.34;5063904;28;20029;-67
2023/08/13 08:20:06;;;;;;;18.02;2.97;;;;;;;20.17;100.00;101553.84;5063849;28;20498;-68
2023/08/13 08:22:31;;;;;;;16.73;3.22;;;;;;;20.18;100.00;101542.16;5063162;28;20371;-67
2023/08/13 08:24:56;;;;;;;17.60;3.28;;;;;;;20.12;100.00;101543.19;5063739;28;20036;-66
2023/08/13 08:27:22;;;;;;;16.33;3.00;;;;;;;20.24;100.00;101549.19;5064097;28;20092;-67
2023/08/13 08:29:47;;;;;;;15.52;3.10;;;;;;;20.25;100.00;101545.59;5062544;28;20029;-66
2023/08/13 08:32:12;;;;;;;14.80;3.00;;;;;;;20.30;100.00;101547.22;5065290;28;20020;-67
2023/08/13 08:34:38;;;;;;;15.95;3.08;;;;;;;20.46;100.00;101539.66;5061860;28;20060;-66
2023/08/13 08:37:04;;;;;;;20.50;3.38;;;;;;;20.61;100.00;101543.75;5064861;28;20598;-66
2023/08/13 08:39:30;;;;;;;17.67;3.35;;;;;;;20.69;100.00;101546.25;5063013;28;20029;-66
2023/08/13 08:41:57;;;;;;;14.45;3.05;;;;;;;20.65;100.00;101548.13;5062582;28;20031;-69
2023/08/13 08:44:24;;;;;;;17.92;3.35;;;;;;;20.93;100.00;101543.84;5063723;28;20043;-66
2023/08/13 08:46:51;;;;;;;17.77;3.30;;;;;;;21.02;100.00;101546.25;5062799;28;20033;-66
2023/08/13 08:49:18;;;;;;;17.17;2.97;;;;;;;21.11;100.00;101543.28;5064499;28;20035;-67
2023/08/13 08:51:45;;;;;;;14.77;3.17;;;;;;;20.98;100.00;101547.25;5061745;28;20055;-66
2023/08/13 08:54:11;;;;;;;16.42;3.17;;;;;;;20.97;100.00;101545.50;5064185;28;20024;-67
2023/08/13 08:56:37;;;;;;;18.30;3.40;;;;;;;21.14;100.00;101543.19;5060495;28;20039;-67
2023/08/13 08:59:04;;;;;;;15.98;3.10;;;;;;;21.18;100.00;101536.81;5064697;28;20370;-71
2023/08/13 09:01:29;;;;;;;15.93;3.30;;;;;;;21.43;100.00;101538.78;5062344;28;20055;-67
2023/08/13 09:03:55;;;;;;;14.50;2.97;;;;;;;21.68;100.00;101535.38;5062235;28;20057;-69
2023/08/13 09:06:20;;;;;;;16.88;3.20;;;;;;;21.59;100.00;101528.47;5063840;28;20056;-67
2023/08/13 09:08:46;;;;;;;16.92;3.30;;;;;;;21.64;100.00;101522.94;5062011;28;20033;-67
2023/08/13 09:11:11;;;;;;;16.52;3.20;;;;;;;21.84;100.00;101516.94;5063516;28;20028;-68
2023/08/13 09:13:47;;;;;;;15.80;3.08;;;;;;;21.99;100.00;101518.25;5061218;28;20025;-67
2023/08/13 09:16:12;;;;;;;15.38;3.03;;;;;;;22.00;100.00;101525.41;5057767;28;20060;-68
2023/08/13 09:18:39;;;;;;;16.02;3.20;;;;;;;21.84;100.00;101517.81;5064812;28;20059;-67
2023/08/13 09:21:04;;;;;;;14.27;2.90;;;;;;;21.68;100.00;101522.81;5061513;28;20029;-69
2023/08/13 09:23:30;;;;;;;17.70;3.20;;;;;;;21.82;100.00;101514.31;5063490;28;20067;-66
2023/08/13 09:25:57;;;;;;;16.75;3.20;;;;;;;22.28;100.00;101506.53;5062890;28;20039;-69
2023/08/13 09:28:23;;;;;;;15.13;3.20;;;;;;;22.51;100.00;101511.13;5062433;28;20108;-67
2023/08/13 09:30:49;;;;;;;16.80;3.25;;;;;;;22.15;100.00;101513.22;5063533;28;20064;-67
2023/08/13 09:33:16;;;;;;;15.07;3.10;;;;;;;22.05;100.00;101508.16;5060122;28;20029;-66
2023/08/13 09:35:42;;;;;;;17.58;3.40;;;;;;;22.39;100.00;101509.75;5064232;28;20048;-69
2023/08/13 09:38:08;;;;;;;16.63;3.00;;;;;;;22.56;100.00;101498.38;5057261;28;20036;-68
2023/08/13 09:40:35;;;;;;;13.10;2.95;;;;;;;22.85;100.00;101499.16;5064094;28;20020;-68
2023/08/13 09:43:06;;;;;;;15.20;3.00;;;;;;;23.48;100.00;101504.00;5061677;28;20471;-67
2023/08/13 09:45:32;;;;;;;14.27;3.00;;;;;;;23.53;100.00;101501.09;5063463;28;20047;-69
2023/08/13 09:48:02;;;;;;;15.40;3.50;;;;;;;23.43;100.00;101492.50;5062300;28;20077;-69
2023/08/13 09:50:31;;;;;;;16.30;3.05;;;;;;;23.72;100.00;101485.06;5062781;28;20067;-67
2023/08/13 09:52:58;;;;;;;17.27;3.30;;;;;;;23.58;100.00;101485.63;5062238;28;20024;-69
2023/08/13 09:55:30;;;;;;;14.90;3.05;;;;;;;23.76;100.00;101486.69;5062343;28;20039;-68
2023/08/13 09:57:58;;;;;;;12.80;2.90;;;;;;;24.02;100.00;101485.66;5062468;28;20036;-70
2023/08/13 10:00:24;;;;;;;16.38;3.13;;;;;;;24.54;100.00;101485.22;5060798;28;20396;-70
2023/08/13 10:02:51;;;;;;;13.85;2.90;;;;;;;24.90;100.00;101487.22;5063316;28;20426;-68
2023/08/13 10:05:16;;;;;;;15.15;3.20;;;;;;;25.17;100.00;101471.56;5061828;28;20102;-69
2023/08/13 10:07:43;;;;;;;15.73;3.00;;;;;;;25.49;100.00;101471.00;5068206;28;20056;-68
2023/08/13 10:10:10;;;;;;;16.83;3.20;;;;;;;25.68;96.78;101484.53;5060984;28;20037;-69
2023/08/13 10:12:37;;;;;;;16.92;3.10;;;;;;;26.44;100.00;101482.50;5067675;28;20103;-69
2023/08/13 10:15:03;;;;;;;15.10;3.15;;;;;;;26.39;85.76;101486.41;5065285;28;20032;-67
2023/08/13 10:17:29;;;;;;;15.68;3.25;;;;;;;25.70;91.13;101478.09;5067158;28;20121;-68
2023/08/13 10:19:55;;;;;;;16.67;3.38;;;;;;;25.43;100.00;101477.59;5066332;28;20479;-69
2023/08/13 10:22:30;;;;;;;15.80;3.08;;;;;;;25.32;100.00;101475.38;5065570;28;20171;-71
2023/08/13 10:24:56;;;;;;;12.20;2.78;;;;;;;25.44;96.09;101475.75;5065878;28;20021;-70
2023/08/13 10:27:22;;;;;;;15.40;3.10;;;;;;;25.43;100.00;101471.31;5052379;28;20037;-70
2023/08/13 10:29:48;;;;;;;16.50;3.10;;;;;;;24.89;98.76;101464.72;5067364;28;20491;-67
2023/08/13 10:32:15;;;;;;;15.25;3.10;;;;;;;24.61;100.00;101472.34;5065077;28;20032;-68
2023/08/13 10:34:50;;;;;;;16.75;2.88;;;;;;;23.87;100.00;101473.66;5066070;28;20045;-70
2023/08/13 10:37:23;;;;;;;16.92;3.28;;;;;;;23.47;100.00;101472.56;5064351;28;20060;-69
2023/08/13 10:39:55;;;;;;;17.08;3.17;;;;;;;23.63;100.00;101464.72;5060450;28;20155;-68
2023/08/13 10:42:26;;;;;;;14.57;3.10;;;;;;;24.36;100.00;101473.38;5054867;28;20063;-66
2023/08/13 10:44:52;;;;;;;16.05;3.17;;;;;;;25.70;98.37;101471.78;5061447;28;20024;-68
2023/08/13 10:47:17;;;;;;;15.98;3.10;;;;;;;26.39;87.47;101468.28;5066933;28;20032;-69
2023/08/13 10:49:43;;;;;;;13.77;3.10;;;;;;;26.90;86.05;101456.63;5063918;28;20033;-69
2023/08/13 10:52:08;;;;;;;16.92;3.03;;;;;;;27.99;72.87;101471.31;5059448;28;20036;-75
2023/08/13 10:54:34;;;;;;;17.77;3.45;;;;;;;28.23;73.46;101468.06;5059128;28;20427;-69
2023/08/13 10:57:01;;;;;;;15.52;2.85;;;;;;;28.28;66.11;101480.41;5064131;28;20032;-69
2023/08/13 10:59:38;;;;;;;13.88;3.00;;;;;;;28.59;68.02;101474.94;5066739;28;20028;-75
2023/08/13 11:02:19;;;;;;;14.23;2.92;;;;;;;29.13;61.43;101472.47;5064957;28;20404;-71
2023/08/13 11:04:46;;;;;;;14.87;3.27;;;;;;;28.63;60.75;101473.78;5064255;28;20033;-72
2023/08/13 11:07:13;;;;;;;16.63;3.25;;;;;;;27.68;62.19;101466.75;5063529;28;20287;-74